createdAt,value
2018-02-21T15:17:48.327Z,1148
2018-02-21T15:18:49.734Z,1140
2018-02-21T15:19:51.124Z,1132
2018-02-21T15:20:52.616Z,1112
2018-02-21T15:21:54.016Z,1104
2018-02-21T15:22:55.419Z,1084
2018-02-21T15:23:56.935Z,1064
2018-02-21T15:24:58.333Z,1056
2018-02-21T15:25:59.816Z,1044
2018-02-21T15:27:01.213Z,1044
2018-02-21T15:28:02.691Z,1040
2018-02-21T15:29:04.096Z,1040
2018-02-21T15:30:05.575Z,1044
2018-02-21T15:31:06.977Z,1044
2018-02-21T15:32:08.455Z,1036
2018-02-21T15:33:09.859Z,1024
2018-02-21T15:34:11.388Z,1004
2018-02-21T15:35:12.810Z,984
2018-02-21T15:36:14.217Z,968
2018-02-21T15:37:15.615Z,948
2018-02-21T15:38:17.095Z,932
2018-02-21T15:39:18.501Z,916
2018-02-21T15:40:19.977Z,900
2018-02-21T15:41:21.422Z,888
2018-02-21T15:42:22.856Z,872
2018-02-21T15:43:24.257Z,864
2018-02-21T15:44:25.660Z,852
2018-02-21T15:45:27.181Z,840
2018-02-21T15:46:28.586Z,820
2018-02-21T15:47:29.984Z,800
2018-02-21T15:48:31.502Z,792
2018-02-21T15:49:32.901Z,784
2018-02-21T15:50:34.308Z,780
2018-02-21T15:51:35.822Z,772
2018-02-21T15:52:37.223Z,764
2018-02-21T15:53:38.630Z,760
2018-02-21T15:54:40.140Z,748
2018-02-21T15:55:41.541Z,736
2018-02-21T15:56:43.020Z,732
2018-02-21T15:57:44.423Z,724
2018-02-21T15:58:45.827Z,716
2018-02-21T15:59:47.347Z,708
2018-02-21T16:00:48.770Z,692
2018-02-21T16:01:50.151Z,680
2018-02-21T16:02:51.666Z,664
2018-02-21T16:03:53.065Z,652
2018-02-21T16:04:54.514Z,632
2018-02-21T16:05:55.990Z,624
2018-02-21T16:06:57.387Z,616
2018-02-21T16:07:58.866Z,608
2018-02-21T16:09:00.269Z,592
2018-02-21T16:10:01.755Z,576
2018-02-21T16:11:03.150Z,564
2018-02-21T16:12:04.662Z,552
2018-02-21T16:13:06.064Z,544
2018-02-21T16:14:07.510Z,532
2018-02-21T16:15:08.912Z,524
2018-02-21T16:16:10.391Z,512
2018-02-21T16:17:11.791Z,500
2018-02-21T16:18:13.277Z,492
2018-02-21T16:19:14.690Z,484
2018-02-21T16:20:16.088Z,468
2018-02-21T16:21:17.604Z,460
2018-02-21T16:22:18.994Z,444
2018-02-21T16:23:20.393Z,432
2018-02-21T16:24:21.911Z,420
2018-02-21T16:25:23.316Z,408
2018-02-21T16:26:24.718Z,400
2018-02-21T16:27:26.233Z,384
2018-02-21T16:28:27.639Z,372
2018-02-21T16:29:29.042Z,364
2018-02-21T16:30:30.555Z,352
2018-02-21T16:31:31.963Z,340
2018-02-21T16:32:33.363Z,328
2018-02-21T16:33:34.875Z,312
2018-02-21T16:34:36.281Z,300
2018-02-21T16:35:37.682Z,284
2018-02-21T16:36:39.565Z,272
2018-02-21T16:37:40.980Z,256
2018-02-21T16:38:42.488Z,240
2018-02-21T16:39:43.890Z,224
2018-02-21T16:40:45.369Z,216
2018-02-21T16:41:46.769Z,208
2018-02-21T16:42:48.249Z,200
2018-02-21T16:43:49.653Z,188
2018-02-21T16:44:51.129Z,176
2018-02-21T16:45:52.530Z,164
2018-02-21T16:46:54.019Z,160
2018-02-21T16:47:55.434Z,152
2018-02-21T16:48:56.891Z,140
2018-02-21T16:49:58.295Z,128
2018-02-21T16:50:59.771Z,116
2018-02-21T16:52:01.170Z,108
2018-02-21T16:53:02.653Z,100
2018-02-21T16:54:04.053Z,92
2018-02-21T16:55:05.452Z,84
2018-02-21T16:56:06.971Z,76
2018-02-21T16:57:08.372Z,68
2018-02-21T16:58:09.773Z,64
2018-02-21T16:59:11.296Z,56
2018-02-21T17:00:12.692Z,48
2018-02-21T17:01:14.093Z,48
2018-02-21T17:02:15.698Z,40
2018-02-21T17:03:17.127Z,36
2018-02-21T17:04:18.526Z,28
2018-02-21T17:05:20.141Z,28
2018-02-21T17:06:21.539Z,24
2018-02-21T17:07:22.932Z,20
2018-02-21T17:08:24.464Z,16
2018-02-21T17:09:25.862Z,16
2018-02-21T17:10:27.259Z,16
2018-02-21T17:11:28.891Z,12
2018-02-21T17:12:30.286Z,8
2018-02-21T17:13:31.680Z,8
2018-02-21T17:14:33.206Z,8
2018-02-21T17:15:34.602Z,8
2018-02-21T17:16:36.291Z,4
2018-02-21T17:17:37.689Z,4
2018-02-21T17:18:39.377Z,4
2018-02-21T17:19:40.776Z,4
2018-02-21T17:20:42.175Z,0
2018-02-21T17:21:43.700Z,4
2018-02-21T17:22:45.095Z,4
2018-02-21T17:23:46.491Z,0
2018-02-21T17:24:48.019Z,0
2018-02-21T17:25:49.417Z,0
2018-02-21T17:26:51.106Z,0
2018-02-21T17:27:52.501Z,0
2018-02-21T17:28:54.191Z,0
2018-02-21T17:29:55.593Z,0
2018-02-21T17:30:57.277Z,0
2018-02-21T17:31:58.676Z,0
2018-02-21T17:33:00.362Z,0
2018-02-21T17:34:01.759Z,0
2018-02-21T17:35:03.448Z,0
2018-02-21T17:36:04.845Z,0
2018-02-21T17:37:06.612Z,0
2018-02-21T17:38:08.129Z,0
2018-02-21T17:39:09.824Z,0
2018-02-21T17:40:11.222Z,0
2018-02-21T17:41:12.909Z,0
2018-02-21T17:42:14.305Z,0
2018-02-21T17:43:15.996Z,0
2018-02-21T17:44:17.396Z,0
2018-02-21T17:45:19.082Z,0
2018-02-21T17:46:20.480Z,0
2018-02-21T17:47:22.166Z,0
2018-02-21T17:48:23.568Z,0
2018-02-21T17:49:25.253Z,0
2018-02-21T17:50:26.647Z,0
2018-02-21T17:51:28.348Z,0
2018-02-21T17:52:52.360Z,0
2018-02-21T17:54:50.758Z,0
2018-02-21T17:56:32.698Z,0
2018-02-21T17:57:34.119Z,0
2018-02-21T17:58:56.059Z,0
2018-02-21T17:59:57.481Z,0
2018-02-21T18:01:19.463Z,0
2018-02-21T18:02:20.872Z,0
2018-02-21T18:05:18.821Z,0
2018-02-21T18:06:20.222Z,0
2018-02-21T18:07:42.195Z,0
2018-02-21T18:08:43.661Z,0
2018-02-21T18:10:05.304Z,0
2018-02-21T18:11:06.699Z,0
2018-02-21T18:12:28.711Z,0
2018-02-21T18:13:30.162Z,0
2018-02-21T18:14:52.120Z,0
2018-02-21T18:15:53.524Z,0
2018-02-21T18:17:15.434Z,0
2018-02-21T18:18:16.838Z,0
2018-02-21T18:19:38.547Z,0
2018-02-21T18:20:39.957Z,0
2018-02-21T18:22:01.954Z,0
2018-02-21T18:23:03.353Z,0
2018-02-21T18:24:25.316Z,0
2018-02-21T18:25:26.708Z,0
2018-02-21T18:26:48.676Z,0
2018-02-21T18:27:50.068Z,0
2018-02-21T18:29:12.063Z,0
2018-02-21T18:30:13.452Z,0
2018-02-21T18:31:35.145Z,0
2018-02-21T18:32:36.545Z,0
2018-02-21T18:33:58.554Z,0
2018-02-21T18:34:59.947Z,0
2018-02-21T18:36:21.923Z,0
2018-02-21T18:37:23.316Z,0
2018-02-21T18:38:45.276Z,0
2018-02-21T18:39:46.672Z,0
2018-02-21T18:41:08.647Z,0
2018-02-21T18:42:10.052Z,0
2018-02-21T18:43:31.991Z,0
2018-02-21T18:44:33.392Z,0
2018-02-21T18:45:55.356Z,0
2018-02-21T18:46:56.752Z,0
2018-02-21T18:48:18.727Z,0
2018-02-21T18:49:20.121Z,0
2018-02-21T18:50:42.100Z,0
2018-02-21T18:51:43.494Z,0
2018-02-21T18:53:05.440Z,0
2018-02-21T18:54:06.834Z,0
2018-02-21T18:55:28.800Z,0
2018-02-21T18:56:30.192Z,0
2018-02-21T18:57:52.162Z,0
2018-02-21T18:58:53.556Z,0
2018-02-21T19:00:15.522Z,0
2018-02-21T19:01:17.312Z,0
2018-02-21T19:02:39.102Z,0
2018-02-21T19:03:42.006Z,0
2018-02-21T19:05:06.057Z,0
